sensor_id;sensor_type;location;lat;lon;timestamp;P1;durP1;ratioP1;P2;durP2;ratioP2
4704;SDS011;2366;51.332;6.610;2023-06-19T00:01:58;9.50;;;5.10;;
4704;SDS011;2366;51.332;6.610;2023-06-19T00:04:24;10.53;;;5.10;;
4704;SDS011;2366;51.332;6.610;2023-06-19T00:06:50;6.00;;;5.40;;
4704;SDS011;2366;51.332;6.610;2023-06-19T00:09:16;6.70;;;4.97;;
4704;SDS011;2366;51.332;6.610;2023-06-19T00:11:42;10.50;;;4.63;;
4704;SDS011;2366;51.332;6.610;2023-06-19T00:14:07;5.73;;;4.97;;
4704;SDS011;2366;51.332;6.610;2023-06-19T00:16:33;7.13;;;5.20;;
4704;SDS011;2366;51.332;6.610;2023-06-19T00:18:58;5.40;;;4.90;;
4704;SDS011;2366;51.332;6.610;2023-06-19T00:21:24;5.70;;;4.90;;
4704;SDS011;2366;51.332;6.610;2023-06-19T00:23:50;5.70;;;4.43;;
4704;SDS011;2366;51.332;6.610;2023-06-19T00:26:16;5.70;;;4.63;;
4704;SDS011;2366;51.332;6.610;2023-06-19T00:28:42;5.77;;;4.60;;
4704;SDS011;2366;51.332;6.610;2023-06-19T00:31:10;4.87;;;4.37;;
4704;SDS011;2366;51.332;6.610;2023-06-19T00:33:38;4.53;;;4.10;;
4704;SDS011;2366;51.332;6.610;2023-06-19T00:36:08;5.73;;;5.23;;
4704;SDS011;2366;51.332;6.610;2023-06-19T00:38:34;4.90;;;4.43;;
4704;SDS011;2366;51.332;6.610;2023-06-19T00:41:00;8.63;;;6.07;;
4704;SDS011;2366;51.332;6.610;2023-06-19T00:43:26;5.57;;;4.87;;
4704;SDS011;2366;51.332;6.610;2023-06-19T00:45:51;5.07;;;4.43;;
4704;SDS011;2366;51.332;6.610;2023-06-19T00:48:16;5.17;;;4.67;;
4704;SDS011;2366;51.332;6.610;2023-06-19T00:50:42;8.83;;;5.20;;
4704;SDS011;2366;51.332;6.610;2023-06-19T00:53:07;5.07;;;4.57;;
4704;SDS011;2366;51.332;6.610;2023-06-19T00:55:33;5.30;;;4.87;;
4704;SDS011;2366;51.332;6.610;2023-06-19T00:57:59;5.87;;;5.10;;
4704;SDS011;2366;51.332;6.610;2023-06-19T01:00:25;11.30;;;5.17;;
4704;SDS011;2366;51.332;6.610;2023-06-19T01:02:50;5.93;;;5.20;;
4704;SDS011;2366;51.332;6.610;2023-06-19T01:05:16;6.40;;;4.90;;
4704;SDS011;2366;51.332;6.610;2023-06-19T01:07:48;7.20;;;4.73;;
4704;SDS011;2366;51.332;6.610;2023-06-19T01:10:22;6.10;;;4.60;;
4704;SDS011;2366;51.332;6.610;2023-06-19T01:12:59;6.40;;;5.27;;
4704;SDS011;2366;51.332;6.610;2023-06-19T01:15:27;5.57;;;5.03;;
4704;SDS011;2366;51.332;6.610;2023-06-19T01:17:54;5.20;;;4.60;;
4704;SDS011;2366;51.332;6.610;2023-06-19T01:20:21;6.00;;;5.43;;
4704;SDS011;2366;51.332;6.610;2023-06-19T01:22:48;6.10;;;5.20;;
4704;SDS011;2366;51.332;6.610;2023-06-19T01:25:13;5.47;;;4.33;;
4704;SDS011;2366;51.332;6.610;2023-06-19T01:27:39;5.87;;;4.73;;
4704;SDS011;2366;51.332;6.610;2023-06-19T01:30:06;6.17;;;5.30;;
4704;SDS011;2366;51.332;6.610;2023-06-19T01:32:44;7.90;;;5.30;;
4704;SDS011;2366;51.332;6.610;2023-06-19T01:35:27;5.60;;;4.70;;
4704;SDS011;2366;51.332;6.610;2023-06-19T01:37:54;5.27;;;4.77;;
4704;SDS011;2366;51.332;6.610;2023-06-19T01:40:20;6.40;;;4.17;;
4704;SDS011;2366;51.332;6.610;2023-06-19T01:42:49;6.13;;;5.50;;
4704;SDS011;2366;51.332;6.610;2023-06-19T01:45:16;5.87;;;5.37;;
4704;SDS011;2366;51.332;6.610;2023-06-19T01:47:42;5.70;;;5.20;;
4704;SDS011;2366;51.332;6.610;2023-06-19T01:50:07;5.93;;;5.17;;
4704;SDS011;2366;51.332;6.610;2023-06-19T01:52:34;6.40;;;5.10;;
4704;SDS011;2366;51.332;6.610;2023-06-19T01:54:59;5.57;;;5.03;;
4704;SDS011;2366;51.332;6.610;2023-06-19T01:57:24;5.87;;;5.27;;
4704;SDS011;2366;51.332;6.610;2023-06-19T01:59:50;5.77;;;5.27;;
4704;SDS011;2366;51.332;6.610;2023-06-19T02:02:16;4.43;;;4.03;;
4704;SDS011;2366;51.332;6.610;2023-06-19T02:04:41;6.00;;;5.50;;
4704;SDS011;2366;51.332;6.610;2023-06-19T02:07:07;4.43;;;4.03;;
4704;SDS011;2366;51.332;6.610;2023-06-19T02:09:32;5.40;;;4.37;;
4704;SDS011;2366;51.332;6.610;2023-06-19T02:11:57;5.00;;;4.50;;
4704;SDS011;2366;51.332;6.610;2023-06-19T02:14:23;5.47;;;4.97;;
4704;SDS011;2366;51.332;6.610;2023-06-19T02:16:48;5.10;;;4.30;;
4704;SDS011;2366;51.332;6.610;2023-06-19T02:19:13;5.60;;;5.00;;
4704;SDS011;2366;51.332;6.610;2023-06-19T02:21:39;5.37;;;4.90;;
4704;SDS011;2366;51.332;6.610;2023-06-19T02:24:04;4.83;;;4.40;;
4704;SDS011;2366;51.332;6.610;2023-06-19T02:26:30;5.83;;;5.03;;
4704;SDS011;2366;51.332;6.610;2023-06-19T02:28:56;6.27;;;5.20;;
4704;SDS011;2366;51.332;6.610;2023-06-19T02:31:22;5.03;;;4.23;;
4704;SDS011;2366;51.332;6.610;2023-06-19T02:33:48;7.43;;;4.73;;
4704;SDS011;2366;51.332;6.610;2023-06-19T02:36:13;8.60;;;4.20;;
4704;SDS011;2366;51.332;6.610;2023-06-19T02:38:50;4.90;;;4.40;;
4704;SDS011;2366;51.332;6.610;2023-06-19T02:41:16;4.47;;;3.83;;
4704;SDS011;2366;51.332;6.610;2023-06-19T02:43:43;5.13;;;4.60;;
4704;SDS011;2366;51.332;6.610;2023-06-19T02:46:10;5.70;;;4.20;;
4704;SDS011;2366;51.332;6.610;2023-06-19T02:48:35;4.50;;;4.03;;
4704;SDS011;2366;51.332;6.610;2023-06-19T02:51:01;4.70;;;3.80;;
4704;SDS011;2366;51.332;6.610;2023-06-19T02:53:26;4.97;;;4.10;;
4704;SDS011;2366;51.332;6.610;2023-06-19T02:55:51;4.80;;;4.13;;
4704;SDS011;2366;51.332;6.610;2023-06-19T02:58:17;3.00;;;2.80;;
4704;SDS011;2366;51.332;6.610;2023-06-19T03:00:42;4.20;;;3.90;;
4704;SDS011;2366;51.332;6.610;2023-06-19T03:03:08;3.90;;;3.23;;
4704;SDS011;2366;51.332;6.610;2023-06-19T03:05:33;3.20;;;2.90;;
4704;SDS011;2366;51.332;6.610;2023-06-19T03:07:59;2.60;;;2.40;;
4704;SDS011;2366;51.332;6.610;2023-06-19T03:10:24;4.33;;;2.77;;
4704;SDS011;2366;51.332;6.610;2023-06-19T03:12:49;2.70;;;2.50;;
4704;SDS011;2366;51.332;6.610;2023-06-19T03:15:15;3.13;;;2.90;;
4704;SDS011;2366;51.332;6.610;2023-06-19T03:17:40;3.30;;;3.00;;
4704;SDS011;2366;51.332;6.610;2023-06-19T03:20:06;6.20;;;3.20;;
4704;SDS011;2366;51.332;6.610;2023-06-19T03:22:34;3.07;;;2.70;;
4704;SDS011;2366;51.332;6.610;2023-06-19T03:24:59;4.73;;;3.23;;
4704;SDS011;2366;51.332;6.610;2023-06-19T03:27:25;4.00;;;3.30;;
4704;SDS011;2366;51.332;6.610;2023-06-19T03:29:51;3.20;;;2.90;;
4704;SDS011;2366;51.332;6.610;2023-06-19T03:32:17;3.57;;;3.20;;
4704;SDS011;2366;51.332;6.610;2023-06-19T03:34:42;4.90;;;3.40;;
4704;SDS011;2366;51.332;6.610;2023-06-19T03:37:07;3.07;;;2.70;;
4704;SDS011;2366;51.332;6.610;2023-06-19T03:39:33;4.03;;;2.43;;
4704;SDS011;2366;51.332;6.610;2023-06-19T03:41:59;3.20;;;2.90;;
4704;SDS011;2366;51.332;6.610;2023-06-19T03:44:24;3.57;;;3.17;;
4704;SDS011;2366;51.332;6.610;2023-06-19T03:46:49;6.70;;;3.30;;
4704;SDS011;2366;51.332;6.610;2023-06-19T03:49:16;3.27;;;2.77;;
4704;SDS011;2366;51.332;6.610;2023-06-19T03:51:42;2.87;;;2.63;;
4704;SDS011;2366;51.332;6.610;2023-06-19T03:54:07;3.03;;;2.77;;
4704;SDS011;2366;51.332;6.610;2023-06-19T03:56:33;3.47;;;3.00;;
4704;SDS011;2366;51.332;6.610;2023-06-19T03:58:58;10.23;;;4.47;;
4704;SDS011;2366;51.332;6.610;2023-06-19T04:01:23;8.20;;;2.73;;
4704;SDS011;2366;51.332;6.610;2023-06-19T04:03:49;7.63;;;3.30;;
4704;SDS011;2366;51.332;6.610;2023-06-19T04:06:14;6.50;;;3.87;;
4704;SDS011;2366;51.332;6.610;2023-06-19T04:08:39;4.43;;;3.57;;
4704;SDS011;2366;51.332;6.610;2023-06-19T04:11:05;3.40;;;3.03;;
4704;SDS011;2366;51.332;6.610;2023-06-19T04:13:30;3.73;;;3.07;;
4704;SDS011;2366;51.332;6.610;2023-06-19T04:15:56;3.27;;;2.97;;
4704;SDS011;2366;51.332;6.610;2023-06-19T04:18:21;3.13;;;2.83;;
4704;SDS011;2366;51.332;6.610;2023-06-19T04:20:46;3.20;;;2.90;;
4704;SDS011;2366;51.332;6.610;2023-06-19T04:23:12;2.63;;;2.43;;
4704;SDS011;2366;51.332;6.610;2023-06-19T04:25:37;3.07;;;2.80;;
4704;SDS011;2366;51.332;6.610;2023-06-19T04:28:03;3.63;;;2.70;;
4704;SDS011;2366;51.332;6.610;2023-06-19T04:30:29;4.70;;;2.77;;
4704;SDS011;2366;51.332;6.610;2023-06-19T04:32:56;3.47;;;2.63;;
4704;SDS011;2366;51.332;6.610;2023-06-19T04:35:24;3.30;;;3.00;;
4704;SDS011;2366;51.332;6.610;2023-06-19T04:37:49;5.53;;;2.60;;
4704;SDS011;2366;51.332;6.610;2023-06-19T04:40:15;6.93;;;3.03;;
4704;SDS011;2366;51.332;6.610;2023-06-19T04:42:41;3.13;;;2.83;;
4704;SDS011;2366;51.332;6.610;2023-06-19T04:45:06;7.13;;;2.50;;
4704;SDS011;2366;51.332;6.610;2023-06-19T04:47:32;3.90;;;2.27;;
4704;SDS011;2366;51.332;6.610;2023-06-19T04:49:59;2.40;;;2.30;;
4704;SDS011;2366;51.332;6.610;2023-06-19T04:52:25;2.77;;;2.20;;
4704;SDS011;2366;51.332;6.610;2023-06-19T04:54:50;4.03;;;2.53;;
4704;SDS011;2366;51.332;6.610;2023-06-19T04:57:16;3.33;;;2.50;;
4704;SDS011;2366;51.332;6.610;2023-06-19T04:59:42;5.17;;;2.10;;
4704;SDS011;2366;51.332;6.610;2023-06-19T05:02:08;2.77;;;2.53;;
4704;SDS011;2366;51.332;6.610;2023-06-19T05:04:34;2.93;;;2.50;;
4704;SDS011;2366;51.332;6.610;2023-06-19T05:06:59;2.90;;;2.47;;
4704;SDS011;2366;51.332;6.610;2023-06-19T05:09:25;2.30;;;2.10;;
4704;SDS011;2366;51.332;6.610;2023-06-19T05:11:50;4.77;;;2.53;;
4704;SDS011;2366;51.332;6.610;2023-06-19T05:14:16;3.00;;;2.43;;
4704;SDS011;2366;51.332;6.610;2023-06-19T05:16:41;3.60;;;2.10;;
4704;SDS011;2366;51.332;6.610;2023-06-19T05:19:06;2.60;;;2.40;;
4704;SDS011;2366;51.332;6.610;2023-06-19T05:21:32;3.70;;;2.53;;
4704;SDS011;2366;51.332;6.610;2023-06-19T05:23:57;2.50;;;1.90;;
4704;SDS011;2366;51.332;6.610;2023-06-19T05:26:22;5.20;;;2.27;;
4704;SDS011;2366;51.332;6.610;2023-06-19T05:28:48;2.53;;;2.33;;
4704;SDS011;2366;51.332;6.610;2023-06-19T05:31:15;2.30;;;2.10;;
4704;SDS011;2366;51.332;6.610;2023-06-19T05:33:40;2.70;;;1.97;;
4704;SDS011;2366;51.332;6.610;2023-06-19T05:36:06;4.00;;;2.00;;
4704;SDS011;2366;51.332;6.610;2023-06-19T05:38:32;2.83;;;2.27;;
4704;SDS011;2366;51.332;6.610;2023-06-19T05:40:57;2.10;;;1.90;;
4704;SDS011;2366;51.332;6.610;2023-06-19T05:43:23;2.70;;;2.50;;
4704;SDS011;2366;51.332;6.610;2023-06-19T05:45:52;2.57;;;2.27;;
4704;SDS011;2366;51.332;6.610;2023-06-19T05:48:18;2.00;;;1.80;;
4704;SDS011;2366;51.332;6.610;2023-06-19T05:50:44;4.13;;;2.40;;
4704;SDS011;2366;51.332;6.610;2023-06-19T05:53:09;3.17;;;2.50;;
4704;SDS011;2366;51.332;6.610;2023-06-19T05:55:34;2.20;;;2.00;;
4704;SDS011;2366;51.332;6.610;2023-06-19T05:58:00;1.97;;;1.77;;
4704;SDS011;2366;51.332;6.610;2023-06-19T06:00:26;2.70;;;1.57;;
4704;SDS011;2366;51.332;6.610;2023-06-19T06:02:52;9.90;;;1.67;;
4704;SDS011;2366;51.332;6.610;2023-06-19T06:05:18;2.30;;;2.10;;
4704;SDS011;2366;51.332;6.610;2023-06-19T06:07:45;2.07;;;1.90;;
4704;SDS011;2366;51.332;6.610;2023-06-19T06:10:11;2.70;;;2.20;;
4704;SDS011;2366;51.332;6.610;2023-06-19T06:12:36;2.70;;;1.63;;
4704;SDS011;2366;51.332;6.610;2023-06-19T06:15:02;1.90;;;1.80;;
4704;SDS011;2366;51.332;6.610;2023-06-19T06:17:29;2.40;;;2.00;;
4704;SDS011;2366;51.332;6.610;2023-06-19T06:19:54;2.17;;;1.97;;
4704;SDS011;2366;51.332;6.610;2023-06-19T06:22:20;2.70;;;2.30;;
4704;SDS011;2366;51.332;6.610;2023-06-19T06:24:45;1.93;;;1.83;;
4704;SDS011;2366;51.332;6.610;2023-06-19T06:27:12;2.33;;;2.10;;
4704;SDS011;2366;51.332;6.610;2023-06-19T06:29:37;6.63;;;2.13;;
4704;SDS011;2366;51.332;6.610;2023-06-19T06:32:06;2.10;;;1.70;;
4704;SDS011;2366;51.332;6.610;2023-06-19T06:34:35;1.60;;;1.47;;
4704;SDS011;2366;51.332;6.610;2023-06-19T06:37:01;3.40;;;2.23;;
4704;SDS011;2366;51.332;6.610;2023-06-19T06:39:27;7.43;;;2.63;;
4704;SDS011;2366;51.332;6.610;2023-06-19T06:41:52;2.63;;;2.27;;
4704;SDS011;2366;51.332;6.610;2023-06-19T06:44:18;2.43;;;2.23;;
4704;SDS011;2366;51.332;6.610;2023-06-19T06:46:43;2.03;;;1.60;;
4704;SDS011;2366;51.332;6.610;2023-06-19T06:49:08;2.50;;;1.90;;
4704;SDS011;2366;51.332;6.610;2023-06-19T06:51:34;3.07;;;1.80;;
4704;SDS011;2366;51.332;6.610;2023-06-19T06:53:59;2.87;;;2.67;;
4704;SDS011;2366;51.332;6.610;2023-06-19T06:56:25;3.03;;;2.10;;
4704;SDS011;2366;51.332;6.610;2023-06-19T06:58:50;4.83;;;2.03;;
4704;SDS011;2366;51.332;6.610;2023-06-19T07:01:15;2.77;;;2.47;;
4704;SDS011;2366;51.332;6.610;2023-06-19T07:03:41;2.83;;;2.63;;
4704;SDS011;2366;51.332;6.610;2023-06-19T07:06:06;7.90;;;2.20;;
4704;SDS011;2366;51.332;6.610;2023-06-19T07:08:32;4.10;;;2.47;;
4704;SDS011;2366;51.332;6.610;2023-06-19T07:10:57;1.93;;;1.80;;
4704;SDS011;2366;51.332;6.610;2023-06-19T07:13:23;3.23;;;2.23;;
4704;SDS011;2366;51.332;6.610;2023-06-19T07:15:48;3.17;;;2.30;;
4704;SDS011;2366;51.332;6.610;2023-06-19T07:18:13;5.73;;;2.37;;
4704;SDS011;2366;51.332;6.610;2023-06-19T07:20:39;3.03;;;2.47;;
4704;SDS011;2366;51.332;6.610;2023-06-19T07:23:04;2.80;;;2.20;;
4704;SDS011;2366;51.332;6.610;2023-06-19T07:25:30;6.83;;;3.30;;
4704;SDS011;2366;51.332;6.610;2023-06-19T07:27:58;3.33;;;2.17;;
4704;SDS011;2366;51.332;6.610;2023-06-19T07:30:24;3.27;;;2.70;;
4704;SDS011;2366;51.332;6.610;2023-06-19T07:32:49;4.60;;;2.20;;
4704;SDS011;2366;51.332;6.610;2023-06-19T07:35:15;2.33;;;1.80;;
4704;SDS011;2366;51.332;6.610;2023-06-19T07:37:40;2.33;;;1.77;;
4704;SDS011;2366;51.332;6.610;2023-06-19T07:40:06;3.37;;;2.53;;
4704;SDS011;2366;51.332;6.610;2023-06-19T07:42:32;3.27;;;1.70;;
4704;SDS011;2366;51.332;6.610;2023-06-19T07:44:57;1.70;;;1.60;;
4704;SDS011;2366;51.332;6.610;2023-06-19T07:47:22;2.73;;;1.67;;
4704;SDS011;2366;51.332;6.610;2023-06-19T07:49:48;2.00;;;1.87;;
4704;SDS011;2366;51.332;6.610;2023-06-19T07:52:13;2.67;;;2.40;;
4704;SDS011;2366;51.332;6.610;2023-06-19T07:54:52;4.30;;;2.90;;
4704;SDS011;2366;51.332;6.610;2023-06-19T07:57:19;2.40;;;2.00;;
4704;SDS011;2366;51.332;6.610;2023-06-19T07:59:45;2.33;;;1.73;;
4704;SDS011;2366;51.332;6.610;2023-06-19T08:02:11;3.40;;;1.60;;
4704;SDS011;2366;51.332;6.610;2023-06-19T08:04:37;2.33;;;1.53;;
4704;SDS011;2366;51.332;6.610;2023-06-19T08:07:02;1.67;;;1.57;;
4704;SDS011;2366;51.332;6.610;2023-06-19T08:09:28;1.93;;;1.80;;
4704;SDS011;2366;51.332;6.610;2023-06-19T08:11:53;2.23;;;2.03;;
4704;SDS011;2366;51.332;6.610;2023-06-19T08:14:18;1.70;;;1.60;;
4704;SDS011;2366;51.332;6.610;2023-06-19T08:16:45;2.00;;;1.67;;
4704;SDS011;2366;51.332;6.610;2023-06-19T08:19:10;2.17;;;1.90;;
4704;SDS011;2366;51.332;6.610;2023-06-19T08:21:35;8.90;;;1.80;;
4704;SDS011;2366;51.332;6.610;2023-06-19T08:24:01;2.20;;;1.70;;
4704;SDS011;2366;51.332;6.610;2023-06-19T08:26:27;2.63;;;1.93;;
4704;SDS011;2366;51.332;6.610;2023-06-19T08:28:52;2.13;;;1.93;;
4704;SDS011;2366;51.332;6.610;2023-06-19T08:31:18;7.63;;;2.43;;
4704;SDS011;2366;51.332;6.610;2023-06-19T08:33:43;2.00;;;1.80;;
4704;SDS011;2366;51.332;6.610;2023-06-19T08:36:10;2.87;;;1.63;;
4704;SDS011;2366;51.332;6.610;2023-06-19T08:38:35;2.40;;;1.53;;
4704;SDS011;2366;51.332;6.610;2023-06-19T08:41:00;2.70;;;1.90;;
4704;SDS011;2366;51.332;6.610;2023-06-19T08:43:26;2.97;;;2.10;;
4704;SDS011;2366;51.332;6.610;2023-06-19T08:46:11;2.73;;;1.60;;
4704;SDS011;2366;51.332;6.610;2023-06-19T08:48:39;9.13;;;1.93;;
4704;SDS011;2366;51.332;6.610;2023-06-19T08:51:05;2.43;;;2.03;;
4704;SDS011;2366;51.332;6.610;2023-06-19T08:53:34;8.67;;;1.70;;
4704;SDS011;2366;51.332;6.610;2023-06-19T08:56:03;2.47;;;2.27;;
4704;SDS011;2366;51.332;6.610;2023-06-19T08:58:28;4.20;;;2.27;;
4704;SDS011;2366;51.332;6.610;2023-06-19T09:00:54;2.87;;;2.20;;
4704;SDS011;2366;51.332;6.610;2023-06-19T09:03:22;2.60;;;2.07;;
4704;SDS011;2366;51.332;6.610;2023-06-19T09:05:48;2.47;;;2.27;;
4704;SDS011;2366;51.332;6.610;2023-06-19T09:08:17;4.60;;;1.90;;
4704;SDS011;2366;51.332;6.610;2023-06-19T09:10:56;2.77;;;2.50;;
4704;SDS011;2366;51.332;6.610;2023-06-19T09:13:23;4.30;;;2.80;;
4704;SDS011;2366;51.332;6.610;2023-06-19T09:15:56;2.30;;;1.50;;
4704;SDS011;2366;51.332;6.610;2023-06-19T09:18:22;4.93;;;1.90;;
4704;SDS011;2366;51.332;6.610;2023-06-19T09:20:48;2.70;;;1.70;;
4704;SDS011;2366;51.332;6.610;2023-06-19T09:23:18;1.80;;;1.70;;
4704;SDS011;2366;51.332;6.610;2023-06-19T09:25:48;2.30;;;2.20;;
4704;SDS011;2366;51.332;6.610;2023-06-19T09:28:20;4.00;;;2.23;;
4704;SDS011;2366;51.332;6.610;2023-06-19T09:30:53;2.07;;;1.97;;
4704;SDS011;2366;51.332;6.610;2023-06-19T09:33:28;4.17;;;2.30;;
4704;SDS011;2366;51.332;6.610;2023-06-19T09:35:55;2.30;;;1.77;;
4704;SDS011;2366;51.332;6.610;2023-06-19T09:38:28;4.03;;;2.30;;
4704;SDS011;2366;51.332;6.610;2023-06-19T09:40:56;3.10;;;1.97;;
4704;SDS011;2366;51.332;6.610;2023-06-19T09:43:30;2.40;;;2.20;;
4704;SDS011;2366;51.332;6.610;2023-06-19T09:45:59;4.13;;;2.17;;
4704;SDS011;2366;51.332;6.610;2023-06-19T09:48:27;2.90;;;2.70;;
4704;SDS011;2366;51.332;6.610;2023-06-19T09:50:54;2.33;;;2.20;;
4704;SDS011;2366;51.332;6.610;2023-06-19T09:53:26;2.37;;;2.20;;
4704;SDS011;2366;51.332;6.610;2023-06-19T09:55:52;2.63;;;2.33;;
4704;SDS011;2366;51.332;6.610;2023-06-19T09:58:18;3.27;;;2.67;;
4704;SDS011;2366;51.332;6.610;2023-06-19T10:00:45;2.90;;;2.27;;
4704;SDS011;2366;51.332;6.610;2023-06-19T10:03:12;4.23;;;2.50;;
4704;SDS011;2366;51.332;6.610;2023-06-19T10:05:39;3.03;;;2.50;;
4704;SDS011;2366;51.332;6.610;2023-06-19T10:08:07;2.33;;;2.23;;
4704;SDS011;2366;51.332;6.610;2023-06-19T10:10:33;2.40;;;2.30;;
4704;SDS011;2366;51.332;6.610;2023-06-19T10:12:59;2.50;;;2.30;;
4704;SDS011;2366;51.332;6.610;2023-06-19T10:15:39;2.30;;;2.00;;
4704;SDS011;2366;51.332;6.610;2023-06-19T10:18:07;1.90;;;1.80;;
4704;SDS011;2366;51.332;6.610;2023-06-19T10:20:34;2.77;;;2.63;;
4704;SDS011;2366;51.332;6.610;2023-06-19T10:23:07;4.37;;;2.70;;
4704;SDS011;2366;51.332;6.610;2023-06-19T10:25:37;2.17;;;2.07;;
4704;SDS011;2366;51.332;6.610;2023-06-19T10:28:21;3.23;;;2.40;;
4704;SDS011;2366;51.332;6.610;2023-06-19T10:31:06;3.00;;;2.80;;
4704;SDS011;2366;51.332;6.610;2023-06-19T10:33:34;2.43;;;2.23;;
4704;SDS011;2366;51.332;6.610;2023-06-19T10:36:12;3.93;;;3.50;;
4704;SDS011;2366;51.332;6.610;2023-06-19T10:38:39;4.37;;;3.10;;
4704;SDS011;2366;51.332;6.610;2023-06-19T10:41:04;4.50;;;2.83;;
4704;SDS011;2366;51.332;6.610;2023-06-19T10:43:29;2.97;;;2.70;;
4704;SDS011;2366;51.332;6.610;2023-06-19T10:45:57;11.00;;;3.07;;
4704;SDS011;2366;51.332;6.610;2023-06-19T10:48:24;4.10;;;3.73;;
4704;SDS011;2366;51.332;6.610;2023-06-19T10:50:50;4.23;;;3.83;;
4704;SDS011;2366;51.332;6.610;2023-06-19T10:53:25;3.80;;;3.50;;
4704;SDS011;2366;51.332;6.610;2023-06-19T10:55:56;5.53;;;2.73;;
4704;SDS011;2366;51.332;6.610;2023-06-19T10:58:26;4.10;;;3.60;;
4704;SDS011;2366;51.332;6.610;2023-06-19T11:00:51;3.50;;;3.00;;
4704;SDS011;2366;51.332;6.610;2023-06-19T11:03:18;4.63;;;3.30;;
4704;SDS011;2366;51.332;6.610;2023-06-19T11:05:44;4.70;;;3.57;;
4704;SDS011;2366;51.332;6.610;2023-06-19T11:08:10;5.07;;;3.40;;
4704;SDS011;2366;51.332;6.610;2023-06-19T11:10:35;6.13;;;3.50;;
4704;SDS011;2366;51.332;6.610;2023-06-19T11:13:01;6.97;;;3.70;;
4704;SDS011;2366;51.332;6.610;2023-06-19T11:15:28;3.90;;;3.60;;
4704;SDS011;2366;51.332;6.610;2023-06-19T11:18:00;5.80;;;3.87;;
4704;SDS011;2366;51.332;6.610;2023-06-19T11:20:27;3.80;;;3.33;;
4704;SDS011;2366;51.332;6.610;2023-06-19T11:22:56;5.50;;;3.30;;
4704;SDS011;2366;51.332;6.610;2023-06-19T11:25:23;7.97;;;3.20;;
4704;SDS011;2366;51.332;6.610;2023-06-19T11:27:48;4.03;;;3.67;;
4704;SDS011;2366;51.332;6.610;2023-06-19T11:30:17;6.40;;;3.90;;
4704;SDS011;2366;51.332;6.610;2023-06-19T11:32:46;5.33;;;3.70;;
4704;SDS011;2366;51.332;6.610;2023-06-19T11:35:13;9.53;;;3.57;;
4704;SDS011;2366;51.332;6.610;2023-06-19T11:37:40;3.40;;;3.00;;
4704;SDS011;2366;51.332;6.610;2023-06-19T11:40:06;5.47;;;3.63;;
4704;SDS011;2366;51.332;6.610;2023-06-19T11:42:48;3.50;;;3.20;;
4704;SDS011;2366;51.332;6.610;2023-06-19T11:45:14;5.60;;;4.10;;
4704;SDS011;2366;51.332;6.610;2023-06-19T11:47:40;4.70;;;4.30;;
4704;SDS011;2366;51.332;6.610;2023-06-19T11:50:06;3.77;;;3.37;;
4704;SDS011;2366;51.332;6.610;2023-06-19T11:52:32;9.70;;;4.23;;
4704;SDS011;2366;51.332;6.610;2023-06-19T11:54:57;7.50;;;4.37;;
4704;SDS011;2366;51.332;6.610;2023-06-19T11:57:22;5.47;;;3.50;;
4704;SDS011;2366;51.332;6.610;2023-06-19T11:59:48;5.07;;;3.40;;
4704;SDS011;2366;51.332;6.610;2023-06-19T12:02:13;4.97;;;3.87;;
4704;SDS011;2366;51.332;6.610;2023-06-19T12:04:39;6.70;;;3.67;;
4704;SDS011;2366;51.332;6.610;2023-06-19T12:07:04;3.33;;;3.10;;
4704;SDS011;2366;51.332;6.610;2023-06-19T12:09:30;4.80;;;4.40;;
4704;SDS011;2366;51.332;6.610;2023-06-19T12:11:59;6.13;;;4.27;;
4704;SDS011;2366;51.332;6.610;2023-06-19T12:14:25;3.77;;;3.47;;
4704;SDS011;2366;51.332;6.610;2023-06-19T12:16:51;3.60;;;2.93;;
4704;SDS011;2366;51.332;6.610;2023-06-19T12:19:17;4.33;;;3.87;;
4704;SDS011;2366;51.332;6.610;2023-06-19T12:21:42;4.83;;;4.00;;
4704;SDS011;2366;51.332;6.610;2023-06-19T12:24:07;4.20;;;3.77;;
4704;SDS011;2366;51.332;6.610;2023-06-19T12:26:36;3.57;;;3.27;;
4704;SDS011;2366;51.332;6.610;2023-06-19T12:29:02;5.67;;;3.10;;
4704;SDS011;2366;51.332;6.610;2023-06-19T12:31:28;6.30;;;4.47;;
4704;SDS011;2366;51.332;6.610;2023-06-19T12:33:54;7.37;;;3.97;;
4704;SDS011;2366;51.332;6.610;2023-06-19T12:36:19;4.53;;;4.07;;
4704;SDS011;2366;51.332;6.610;2023-06-19T12:38:45;3.83;;;3.33;;
4704;SDS011;2366;51.332;6.610;2023-06-19T12:41:12;3.40;;;3.10;;
4704;SDS011;2366;51.332;6.610;2023-06-19T12:43:38;4.03;;;3.00;;
4704;SDS011;2366;51.332;6.610;2023-06-19T12:46:03;6.20;;;4.33;;
4704;SDS011;2366;51.332;6.610;2023-06-19T12:48:29;7.20;;;3.50;;
4704;SDS011;2366;51.332;6.610;2023-06-19T12:50:54;4.07;;;3.70;;
4704;SDS011;2366;51.332;6.610;2023-06-19T12:53:20;4.33;;;3.80;;
4704;SDS011;2366;51.332;6.610;2023-06-19T12:55:47;3.27;;;3.00;;
4704;SDS011;2366;51.332;6.610;2023-06-19T12:58:13;3.80;;;3.50;;
4704;SDS011;2366;51.332;6.610;2023-06-19T13:00:38;3.50;;;3.20;;
4704;SDS011;2366;51.332;6.610;2023-06-19T13:03:03;5.10;;;4.60;;
4704;SDS011;2366;51.332;6.610;2023-06-19T13:05:29;3.63;;;3.33;;
4704;SDS011;2366;51.332;6.610;2023-06-19T13:07:54;2.90;;;2.70;;
4704;SDS011;2366;51.332;6.610;2023-06-19T13:10:21;4.10;;;3.67;;
4704;SDS011;2366;51.332;6.610;2023-06-19T13:12:46;2.97;;;2.70;;
4704;SDS011;2366;51.332;6.610;2023-06-19T13:15:12;6.10;;;4.07;;
4704;SDS011;2366;51.332;6.610;2023-06-19T13:17:37;3.97;;;3.57;;
4704;SDS011;2366;51.332;6.610;2023-06-19T13:20:03;4.87;;;3.57;;
4704;SDS011;2366;51.332;6.610;2023-06-19T13:22:30;3.93;;;3.40;;
4704;SDS011;2366;51.332;6.610;2023-06-19T13:24:55;3.57;;;3.20;;
4704;SDS011;2366;51.332;6.610;2023-06-19T13:27:21;3.40;;;3.10;;
4704;SDS011;2366;51.332;6.610;2023-06-19T13:29:46;4.53;;;3.40;;
4704;SDS011;2366;51.332;6.610;2023-06-19T13:32:11;3.43;;;3.13;;
4704;SDS011;2366;51.332;6.610;2023-06-19T13:34:37;4.83;;;3.50;;
4704;SDS011;2366;51.332;6.610;2023-06-19T13:37:02;3.73;;;3.40;;
4704;SDS011;2366;51.332;6.610;2023-06-19T13:39:29;5.07;;;3.60;;
4704;SDS011;2366;51.332;6.610;2023-06-19T13:41:55;3.70;;;3.40;;
4704;SDS011;2366;51.332;6.610;2023-06-19T13:44:20;3.80;;;3.23;;
4704;SDS011;2366;51.332;6.610;2023-06-19T13:46:46;4.10;;;3.70;;
4704;SDS011;2366;51.332;6.610;2023-06-19T13:49:12;4.33;;;3.73;;
4704;SDS011;2366;51.332;6.610;2023-06-19T13:51:38;4.90;;;3.47;;
4704;SDS011;2366;51.332;6.610;2023-06-19T13:54:04;4.27;;;3.50;;
4704;SDS011;2366;51.332;6.610;2023-06-19T13:56:30;3.50;;;3.30;;
4704;SDS011;2366;51.332;6.610;2023-06-19T13:58:55;4.33;;;3.70;;
4704;SDS011;2366;51.332;6.610;2023-06-19T14:01:23;4.07;;;2.87;;
4704;SDS011;2366;51.332;6.610;2023-06-19T14:03:50;3.73;;;3.43;;
4704;SDS011;2366;51.332;6.610;2023-06-19T14:06:16;5.47;;;3.00;;
4704;SDS011;2366;51.332;6.610;2023-06-19T14:08:41;3.37;;;3.07;;
4704;SDS011;2366;51.332;6.610;2023-06-19T14:11:06;9.40;;;4.50;;
4704;SDS011;2366;51.332;6.610;2023-06-19T14:13:32;7.53;;;3.60;;
4704;SDS011;2366;51.332;6.610;2023-06-19T14:15:57;3.40;;;3.10;;
4704;SDS011;2366;51.332;6.610;2023-06-19T14:18:23;3.23;;;2.93;;
4704;SDS011;2366;51.332;6.610;2023-06-19T14:20:48;3.73;;;3.43;;
4704;SDS011;2366;51.332;6.610;2023-06-19T14:23:14;3.43;;;3.13;;
4704;SDS011;2366;51.332;6.610;2023-06-19T14:25:39;10.97;;;3.00;;
4704;SDS011;2366;51.332;6.610;2023-06-19T14:28:05;3.17;;;2.73;;
4704;SDS011;2366;51.332;6.610;2023-06-19T14:30:30;4.60;;;4.13;;
4704;SDS011;2366;51.332;6.610;2023-06-19T14:32:56;3.50;;;3.20;;
4704;SDS011;2366;51.332;6.610;2023-06-19T14:35:21;4.60;;;3.20;;
4704;SDS011;2366;51.332;6.610;2023-06-19T14:37:46;4.80;;;3.23;;
4704;SDS011;2366;51.332;6.610;2023-06-19T14:40:12;4.43;;;3.30;;
4704;SDS011;2366;51.332;6.610;2023-06-19T14:42:37;4.13;;;3.40;;
4704;SDS011;2366;51.332;6.610;2023-06-19T14:45:03;2.80;;;2.60;;
4704;SDS011;2366;51.332;6.610;2023-06-19T14:47:29;3.33;;;3.03;;
4704;SDS011;2366;51.332;6.610;2023-06-19T14:49:54;4.37;;;3.37;;
4704;SDS011;2366;51.332;6.610;2023-06-19T14:52:20;3.00;;;2.80;;
4704;SDS011;2366;51.332;6.610;2023-06-19T14:54:46;2.80;;;2.60;;
4704;SDS011;2366;51.332;6.610;2023-06-19T14:57:11;4.90;;;4.13;;
4704;SDS011;2366;51.332;6.610;2023-06-19T14:59:37;5.57;;;3.93;;
4704;SDS011;2366;51.332;6.610;2023-06-19T15:02:03;5.80;;;2.80;;
4704;SDS011;2366;51.332;6.610;2023-06-19T15:04:28;4.03;;;2.77;;
4704;SDS011;2366;51.332;6.610;2023-06-19T15:06:54;3.37;;;3.07;;
4704;SDS011;2366;51.332;6.610;2023-06-19T15:09:19;8.33;;;2.53;;
4704;SDS011;2366;51.332;6.610;2023-06-19T15:11:45;2.53;;;2.30;;